createdAt,value
2023-11-03T00:00:01.452Z,97770.75
2023-11-03T00:02:31.459Z,97768.31
2023-11-03T00:05:02.665Z,97774.97
2023-11-03T00:07:32.349Z,97769.91
2023-11-03T00:09:59.015Z,97782.34
2023-11-03T00:12:25.826Z,97776.25
2023-11-03T00:14:52.373Z,97797.69
2023-11-03T00:27:58.013Z,97785.88
2023-11-03T00:30:24.520Z,97783.44
2023-11-03T00:32:51.084Z,97774.72
2023-11-03T00:35:17.647Z,97782.66
2023-11-03T00:37:45.792Z,97784.75
2023-11-03T00:40:14.483Z,97777.84
2023-11-03T00:42:41.225Z,97774.38
2023-11-03T00:45:08.009Z,97792.69
2023-11-03T00:47:34.731Z,97802.22
2023-11-03T00:50:01.222Z,97809.09
2023-11-03T00:52:27.801Z,97814.38
2023-11-03T00:54:54.920Z,97831.84
2023-11-03T00:57:21.577Z,97821.84
2023-11-03T00:59:50.611Z,97838.47
2023-11-03T01:02:18.665Z,97834.00
2023-11-03T01:04:45.462Z,97836.66
2023-11-03T01:07:12.067Z,97851.47
2023-11-03T01:09:39.456Z,97844.03
2023-11-03T01:12:08.203Z,97842.16
2023-11-03T01:14:35.195Z,97845.63
2023-11-03T01:17:03.639Z,97854.34
2023-11-03T01:19:32.161Z,97853.00
2023-11-03T01:22:00.707Z,97844.50
2023-11-03T01:24:27.449Z,97842.66
2023-11-03T01:26:53.999Z,97867.25
2023-11-03T01:29:21.425Z,97860.44
2023-11-03T01:31:47.944Z,97852.75
2023-11-03T01:34:14.947Z,97872.63
2023-11-03T01:36:41.569Z,97874.78
2023-11-03T01:39:09.439Z,97859.47
2023-11-03T01:41:36.046Z,97861.06
2023-11-03T01:44:13.223Z,97867.16
2023-11-03T01:46:41.621Z,97874.03
2023-11-03T01:49:10.692Z,97864.81
2023-11-03T01:51:38.606Z,97882.59
2023-11-03T01:54:06.249Z,97880.50
2023-11-03T01:56:36.022Z,97880.28
2023-11-03T01:59:04.165Z,97877.38
2023-11-03T02:01:31.078Z,97885.06
2023-11-03T02:03:57.762Z,97872.63
2023-11-03T02:06:24.377Z,97882.97
2023-11-03T02:08:51.012Z,97890.09
2023-11-03T02:11:25.337Z,97890.66
2023-11-03T02:13:51.819Z,97885.63
2023-11-03T02:16:18.558Z,97896.75
2023-11-03T02:18:45.159Z,97902.06
2023-11-03T02:21:11.748Z,97899.97
2023-11-03T02:23:38.233Z,97908.47
2023-11-03T02:26:05.067Z,97907.41
2023-11-03T02:28:31.571Z,97911.66
2023-11-03T02:30:58.137Z,97914.84
2023-11-03T02:33:24.648Z,97917.25
2023-11-03T02:35:51.145Z,97919.88
2023-11-03T02:38:18.099Z,97920.44
2023-11-03T02:40:46.401Z,97915.97
2023-11-03T02:43:13.003Z,97919.41
2023-11-03T02:45:39.935Z,97931.84
2023-11-03T02:48:07.109Z,97922.88
2023-11-03T02:50:33.666Z,97928.16
2023-11-03T02:53:00.163Z,97921.25
2023-11-03T02:55:26.623Z,97924.94
2023-11-03T02:57:53.112Z,97932.63
2023-11-03T03:00:19.997Z,97932.88
2023-11-03T03:02:46.586Z,97938.66
2023-11-03T03:05:13.086Z,97936.25
2023-11-03T03:07:40.504Z,97938.34
2023-11-03T03:10:07.882Z,97944.66
2023-11-03T03:12:34.524Z,97940.69
2023-11-03T03:15:01.029Z,97943.06
2023-11-03T03:17:27.585Z,97942.50
2023-11-03T03:19:54.087Z,97944.94
2023-11-03T03:22:20.597Z,97944.13
2023-11-03T03:24:47.564Z,97951.25
2023-11-03T03:27:14.121Z,97945.16
2023-11-03T03:29:40.588Z,97948.84
2023-11-03T03:32:07.197Z,97952.88
2023-11-03T03:34:33.967Z,97951.81
2023-11-03T03:37:00.869Z,97965.59
2023-11-03T03:39:27.490Z,97971.69
2023-11-03T03:41:54.031Z,97957.19
2023-11-03T03:44:20.639Z,97980.19
2023-11-03T03:46:47.122Z,97974.09
2023-11-03T03:49:13.691Z,97978.34
2023-11-03T03:51:40.438Z,97981.00
2023-11-03T03:54:07.181Z,97996.88
2023-11-03T03:56:33.649Z,97990.19
2023-11-03T03:59:00.431Z,97992.63
2023-11-03T04:01:26.910Z,97988.13
2023-11-03T04:03:53.492Z,98000.00
2023-11-03T04:06:20.018Z,97991.97
2023-11-03T04:08:46.524Z,97998.53
2023-11-03T04:11:14.162Z,98014.09
2023-11-03T04:13:40.925Z,98004.56
2023-11-03T04:16:08.045Z,98019.06
2023-11-03T04:18:36.047Z,98018.75
2023-11-03T04:21:02.887Z,98024.19
2023-11-03T04:23:30.266Z,98026.75
2023-11-03T04:25:56.843Z,98016.66
2023-11-03T04:28:23.447Z,98018.75
2023-11-03T04:30:51.504Z,98031.19
2023-11-03T04:33:18.036Z,98031.19
2023-11-03T04:35:44.652Z,98035.91
2023-11-03T04:38:11.926Z,98041.19
2023-11-03T04:40:38.508Z,98043.84
2023-11-03T04:43:05.068Z,98044.03
2023-11-03T04:45:31.621Z,98057.84
2023-11-03T04:47:58.211Z,98057.63
2023-11-03T04:50:24.710Z,98063.94
2023-11-03T04:52:51.224Z,98057.06
2023-11-03T04:55:17.704Z,98067.63
2023-11-03T04:57:44.393Z,98068.63
2023-11-03T05:00:11.860Z,98072.91
2023-11-03T05:02:38.378Z,98073.09
2023-11-03T05:05:05.881Z,98086.31
2023-11-03T05:07:33.852Z,98080.47
2023-11-03T05:10:01.112Z,98081.84
2023-11-03T05:12:27.598Z,98076.56
2023-11-03T05:14:54.166Z,98080.59
2023-11-03T05:17:20.682Z,98069.22
2023-11-03T05:19:49.252Z,98078.50
2023-11-03T05:22:16.424Z,98081.97
2023-11-03T05:24:44.452Z,98085.41
2023-11-03T05:27:11.264Z,98082.53
2023-11-03T05:29:40.069Z,98082.75
2023-11-03T05:32:07.809Z,98087.25
2023-11-03T05:34:37.029Z,98098.88
2023-11-03T05:37:03.674Z,98102.56
2023-11-03T05:39:31.872Z,98093.03
2023-11-03T05:41:58.763Z,98104.63
2023-11-03T05:44:25.397Z,98109.44
2023-11-03T05:46:52.473Z,98108.63
2023-11-03T05:49:19.142Z,98107.03
2023-11-03T05:51:45.724Z,98107.84
2023-11-03T05:54:12.288Z,98121.06
2023-11-03T05:56:38.780Z,98137.72
2023-11-03T05:59:05.348Z,98140.13
2023-11-03T06:01:34.880Z,98138.28
2023-11-03T06:04:01.592Z,98139.09
2023-11-03T06:06:28.637Z,98145.31
2023-11-03T06:08:56.433Z,98160.94
2023-11-03T06:11:23.733Z,98142.44
2023-11-03T06:13:50.364Z,98152.78
2023-11-03T06:16:21.347Z,98150.16
2023-11-03T06:18:49.732Z,98147.72
2023-11-03T06:21:18.392Z,98168.66
2023-11-03T06:23:44.883Z,98166.56
2023-11-03T06:26:12.660Z,98167.63
2023-11-03T06:28:39.263Z,98171.03
2023-11-03T06:31:05.877Z,98178.50
2023-11-03T06:33:32.429Z,98188.88
2023-11-03T06:36:00.430Z,98198.16
2023-11-03T06:38:27.199Z,98203.22
2023-11-03T06:40:54.506Z,98200.31
2023-11-03T06:43:21.095Z,98210.69
2023-11-03T06:45:47.669Z,98207.78
2023-11-03T06:48:14.208Z,98208.13
2023-11-03T06:50:42.970Z,98223.75
2023-11-03T06:53:10.070Z,98219.28
2023-11-03T06:55:36.763Z,98225.69
2023-11-03T06:58:03.608Z,98240.84
2023-11-03T07:00:31.145Z,98232.13
2023-11-03T07:02:58.269Z,98245.44
2023-11-03T07:05:25.313Z,98252.34
2023-11-03T07:07:51.845Z,98252.91
2023-11-03T07:10:18.713Z,98251.88
2023-11-03T07:12:46.385Z,98257.72
2023-11-03T07:15:13.326Z,98257.47
2023-11-03T07:17:39.940Z,98268.41
2023-11-03T07:20:08.973Z,98269.19
2023-11-03T07:22:35.574Z,98275.63
2023-11-03T07:25:02.135Z,98273.53
2023-11-03T07:27:28.812Z,98272.28
2023-11-03T07:29:55.271Z,98284.47
2023-11-03T07:32:21.800Z,98299.41
2023-11-03T07:34:49.350Z,98298.59
2023-11-03T07:37:17.085Z,98304.69
2023-11-03T07:39:43.592Z,98315.28
2023-11-03T07:42:10.947Z,98307.56
2023-11-03T07:44:37.466Z,98314.25
2023-11-03T07:47:07.789Z,98316.63
2023-11-03T07:49:34.393Z,98318.50
2023-11-03T07:52:01.808Z,98330.69
2023-11-03T07:54:28.439Z,98332.28
2023-11-03T07:56:55.023Z,98351.41
2023-11-03T07:59:21.523Z,98352.44
2023-11-03T08:01:48.788Z,98358.28
2023-11-03T08:04:17.535Z,98359.91
2023-11-03T08:06:48.484Z,98365.19
2023-11-03T08:09:15.574Z,98373.94
2023-11-03T08:11:42.300Z,98377.38
2023-11-03T08:14:08.786Z,98376.09
2023-11-03T08:16:35.305Z,98377.72
2023-11-03T08:19:02.393Z,98362.06
2023-11-03T08:21:28.966Z,98383.81
2023-11-03T08:23:55.505Z,98387.81
2023-11-03T08:26:22.117Z,98390.22
2023-11-03T08:28:50.538Z,98384.72
2023-11-03T08:31:17.176Z,98391.84
2023-11-03T08:33:43.711Z,98416.22
2023-11-03T08:36:10.461Z,98400.91
2023-11-03T08:38:37.712Z,98406.78
2023-11-03T08:41:04.404Z,98399.88
2023-11-03T08:43:31.520Z,98403.09
2023-11-03T08:45:58.040Z,98415.75
2023-11-03T08:48:26.358Z,98414.97
2023-11-03T08:50:54.051Z,98421.63
2023-11-03T08:53:20.570Z,98420.59
2023-11-03T08:55:47.058Z,98421.97
2023-11-03T08:58:20.778Z,98427.84
2023-11-03T09:00:52.606Z,98424.16
2023-11-03T09:03:21.555Z,98422.84
2023-11-03T09:05:48.821Z,98430.34
2023-11-03T09:08:16.431Z,98430.44
2023-11-03T09:10:43.064Z,98436.06
2023-11-03T09:13:09.818Z,98432.13
2023-11-03T09:15:43.167Z,98427.97
2023-11-03T09:18:16.622Z,98451.91
2023-11-03T09:20:43.216Z,98434.50
2023-11-03T09:23:12.589Z,98434.84
2023-11-03T09:25:39.103Z,98428.59
2023-11-03T09:28:06.187Z,98437.34
2023-11-03T09:30:32.748Z,98454.38
2023-11-03T09:33:00.109Z,98457.84
2023-11-03T09:35:26.750Z,98451.91
2023-11-03T09:37:54.906Z,98453.94
2023-11-03T09:40:22.136Z,98458.50
2023-11-03T09:42:49.581Z,98457.81
2023-11-03T09:45:20.571Z,98458.69
2023-11-03T09:47:50.283Z,98447.31
2023-11-03T09:50:17.369Z,98448.78
2023-11-03T09:52:49.186Z,98436.72
2023-11-03T09:55:22.751Z,98455.97
2023-11-03T09:57:53.127Z,98448.56
2023-11-03T10:00:22.573Z,98448.81
2023-11-03T10:02:49.617Z,98451.00
2023-11-03T10:05:19.921Z,98461.75
2023-11-03T10:08:07.937Z,98464.50
2023-11-03T10:10:36.366Z,98462.06
2023-11-03T10:13:06.256Z,98471.28
2023-11-03T10:15:33.262Z,98462.81
2023-11-03T10:18:00.231Z,98465.72
2023-11-03T10:20:26.903Z,98454.22
2023-11-03T10:22:53.754Z,98470.78
2023-11-03T10:25:20.526Z,98475.72
2023-11-03T10:27:52.826Z,98478.44
2023-11-03T10:30:20.392Z,98479.75
2023-11-03T10:32:47.678Z,98474.94
2023-11-03T10:35:14.776Z,98492.50
2023-11-03T10:37:42.694Z,98488.78
2023-11-03T10:40:17.253Z,98490.94
2023-11-03T10:42:49.163Z,98500.47
2023-11-03T10:45:18.707Z,98494.66
2023-11-03T10:47:52.184Z,98496.81
2023-11-03T10:50:21.710Z,98496.44
2023-11-03T10:53:13.858Z,98500.72
2023-11-03T10:55:50.594Z,98515.41
2023-11-03T10:58:18.820Z,98506.59
2023-11-03T11:00:59.353Z,98500.91
2023-11-03T11:03:31.998Z,98511.91
2023-11-03T11:06:21.778Z,98503.09
2023-11-03T11:08:53.279Z,98513.06
2023-11-03T11:11:19.785Z,98516.53
2023-11-03T11:13:46.284Z,98518.94
2023-11-03T11:16:16.159Z,98541.88
2023-11-03T11:18:45.285Z,98532.53
2023-11-03T11:21:15.855Z,98518.50
2023-11-03T11:23:45.511Z,98520.50
2023-11-03T11:26:31.503Z,98520.31
2023-11-03T11:29:02.224Z,98547.03
2023-11-03T11:31:29.460Z,98542.06
2023-11-03T11:34:02.127Z,98547.38
2023-11-03T11:36:28.937Z,98550.19
2023-11-03T11:38:56.228Z,98554.31
2023-11-03T11:41:25.584Z,98551.59
2023-11-03T11:43:56.445Z,98559.28
2023-11-03T11:46:23.617Z,98559.75
2023-11-03T11:48:51.623Z,98562.91
2023-11-03T11:51:18.371Z,98565.56
2023-11-03T11:53:44.877Z,98566.34
2023-11-03T11:56:11.450Z,98569.34
2023-11-03T11:58:40.669Z,98586.63
2023-11-03T12:01:07.670Z,98574.94
2023-11-03T12:03:40.539Z,98588.56
2023-11-03T12:06:07.872Z,98585.91
2023-11-03T12:08:35.810Z,98585.09
2023-11-03T12:11:02.828Z,98579.53
2023-11-03T12:13:29.411Z,98590.47
2023-11-03T12:15:55.949Z,98586.22
2023-11-03T12:18:22.574Z,98588.44
2023-11-03T12:21:02.555Z,98599.28
2023-11-03T12:23:32.376Z,98595.97
2023-11-03T12:25:59.847Z,98593.34
2023-11-03T12:28:26.842Z,98590.84
2023-11-03T12:30:55.940Z,98594.13
2023-11-03T12:33:22.574Z,98600.75
2023-11-03T12:35:49.459Z,98612.00
2023-11-03T12:38:19.308Z,98603.84
2023-11-03T12:40:48.501Z,98609.22
2023-11-03T12:43:16.210Z,98609.16
2023-11-03T12:45:46.070Z,98605.28
2023-11-03T12:48:22.430Z,98606.94
2023-11-03T12:51:01.134Z,98597.41
2023-11-03T12:53:28.270Z,98604.13
2023-11-03T12:56:08.113Z,98607.66
2023-11-03T12:58:34.611Z,98614.22
2023-11-03T13:01:03.368Z,98613.44
2023-11-03T13:03:29.890Z,98609.59
2023-11-03T13:05:56.909Z,98616.47
2023-11-03T13:08:23.735Z,98611.44
2023-11-03T13:10:52.552Z,98625.78
2023-11-03T13:13:19.544Z,98623.13
2023-11-03T13:15:46.097Z,98623.69
2023-11-03T13:18:12.706Z,98625.78
2023-11-03T13:20:39.572Z,98629.50
2023-11-03T13:23:08.344Z,98624.69
2023-11-03T13:25:35.082Z,98619.84
2023-11-03T13:28:02.662Z,98637.63
2023-11-03T13:30:29.236Z,98631.97
2023-11-03T13:32:56.255Z,98640.44
2023-11-03T13:35:25.656Z,98640.16
2023-11-03T13:37:52.505Z,98647.00
2023-11-03T13:40:21.862Z,98652.00
2023-11-03T13:42:52.580Z,98659.41
2023-11-03T13:45:19.404Z,98657.25
2023-11-03T13:47:48.075Z,98663.94
2023-11-03T13:50:21.280Z,98656.84
2023-11-03T13:52:49.859Z,98666.13
2023-11-03T13:55:18.439Z,98665.56
2023-11-03T13:57:45.161Z,98666.84
2023-11-03T14:00:15.833Z,98673.66
2023-11-03T14:02:42.655Z,98671.00
2023-11-03T14:05:10.200Z,98675.72
2023-11-03T14:07:39.021Z,98675.94
2023-11-03T14:10:09.507Z,98680.97
2023-11-03T14:12:39.517Z,98693.44
2023-11-03T14:15:08.267Z,98688.59
2023-11-03T14:17:35.444Z,98690.69
2023-11-03T14:20:02.155Z,98695.22
2023-11-03T14:22:28.769Z,98698.94
2023-11-03T14:24:55.256Z,98694.09
2023-11-03T14:27:21.855Z,98699.97
2023-11-03T14:29:51.220Z,98699.91
2023-11-03T14:32:17.879Z,98705.44
2023-11-03T14:34:44.457Z,98711.66
2023-11-03T14:37:13.248Z,98712.72
2023-11-03T14:39:42.389Z,98720.34
2023-11-03T14:42:08.995Z,98714.47
2023-11-03T14:44:37.742Z,98737.09
2023-11-03T14:47:05.391Z,98732.03
2023-11-03T14:49:32.266Z,98726.97
2023-11-03T14:51:58.880Z,98725.56
2023-11-03T14:54:25.579Z,98731.38
2023-11-03T14:56:53.395Z,98731.94
2023-11-03T14:59:20.095Z,98743.38
2023-11-03T15:01:46.985Z,98738.06
2023-11-03T15:04:13.681Z,98747.09
2023-11-03T15:06:40.246Z,98754.03
2023-11-03T15:09:06.795Z,98741.44
2023-11-03T15:11:33.729Z,98750.38
2023-11-03T15:14:00.733Z,98746.59
2023-11-03T15:16:30.368Z,98755.84
2023-11-03T15:18:58.380Z,98757.13
2023-11-03T15:21:25.026Z,98765.34
2023-11-03T15:23:51.689Z,98765.56
2023-11-03T15:26:19.370Z,98772.50
2023-11-03T15:28:46.085Z,98770.09
2023-11-03T15:31:13.238Z,98774.84
2023-11-03T15:33:39.947Z,98775.31
2023-11-03T15:36:08.504Z,98771.53
2023-11-03T15:38:36.313Z,98774.19
2023-11-03T15:41:04.300Z,98769.09
2023-11-03T15:43:31.109Z,98773.28
2023-11-03T15:45:59.095Z,98769.25
2023-11-03T15:48:28.991Z,98769.94
2023-11-03T15:50:55.885Z,98779.22
2023-11-03T15:53:23.104Z,98791.91
2023-11-03T15:55:51.551Z,98789.75
2023-11-03T15:58:20.117Z,98784.91
2023-11-03T16:00:56.373Z,98793.00
2023-11-03T16:03:23.712Z,98792.09
2023-11-03T16:05:51.368Z,98792.00
2023-11-03T16:08:18.138Z,98792.13
2023-11-03T16:10:46.011Z,98791.22
2023-11-03T16:13:14.882Z,98788.69
2023-11-03T16:15:42.030Z,98790.66
2023-11-03T16:18:12.376Z,98795.06
2023-11-03T16:20:39.070Z,98789.09
2023-11-03T16:23:05.699Z,98800.16
2023-11-03T16:25:32.281Z,98801.91
2023-11-03T16:27:59.428Z,98808.91
2023-11-03T16:30:26.632Z,98804.06
2023-11-03T16:32:53.879Z,98810.88
2023-11-03T16:35:20.981Z,98807.06
2023-11-03T16:37:47.796Z,98805.91
2023-11-03T16:40:14.762Z,98806.38
2023-11-03T16:42:45.300Z,98814.22
2023-11-03T16:45:12.887Z,98809.94
2023-11-03T16:47:40.736Z,98808.56
2023-11-03T16:50:10.531Z,98818.81
2023-11-03T16:52:39.214Z,98814.78
2023-11-03T16:55:08.146Z,98810.97
2023-11-03T16:57:34.794Z,98815.91
2023-11-03T17:00:02.665Z,98822.25
2023-11-03T17:02:29.274Z,98824.13
2023-11-03T17:04:55.932Z,98826.41
2023-11-03T17:07:22.556Z,98824.78
2023-11-03T17:09:49.124Z,98827.44
2023-11-03T17:12:17.119Z,98826.84
2023-11-03T17:14:45.817Z,98823.63
2023-11-03T17:17:13.991Z,98825.69
2023-11-03T17:19:40.837Z,98833.88
2023-11-03T17:22:08.607Z,98824.53
2023-11-03T17:24:35.400Z,98828.22
2023-11-03T17:27:02.174Z,98833.97
2023-11-03T17:29:30.138Z,98828.91
2023-11-03T17:31:56.935Z,98820.59
2023-11-03T17:34:23.694Z,98827.97
2023-11-03T17:36:51.666Z,98832.69
2023-11-03T17:39:18.655Z,98831.53
2023-11-03T17:41:45.369Z,98830.88
2023-11-03T17:44:13.755Z,98827.63
2023-11-03T17:46:40.414Z,98824.41
2023-11-03T17:49:07.209Z,98835.00
2023-11-03T17:51:33.776Z,98820.72
2023-11-03T17:54:01.770Z,98828.88
2023-11-03T17:56:29.745Z,98826.47
2023-11-03T17:58:56.236Z,98842.56
2023-11-03T18:01:24.414Z,98838.31
2023-11-03T18:03:52.101Z,98836.69
2023-11-03T18:06:18.775Z,98836.13
2023-11-03T18:08:45.282Z,98826.56
2023-11-03T18:11:11.928Z,98831.84
2023-11-03T18:13:38.517Z,98836.34
2023-11-03T18:16:05.648Z,98836.13
2023-11-03T18:18:32.262Z,98838.75
2023-11-03T18:20:59.391Z,98837.84
2023-11-03T18:23:25.959Z,98841.53
2023-11-03T18:25:52.587Z,98847.03
2023-11-03T18:28:19.164Z,98850.13
2023-11-03T18:30:45.651Z,98857.47
2023-11-03T18:33:12.413Z,98867.50
2023-11-03T18:35:40.189Z,98858.97
2023-11-03T18:38:06.732Z,98867.94
2023-11-03T18:40:33.980Z,98868.38
2023-11-03T18:43:01.327Z,98873.09
2023-11-03T18:45:28.019Z,98876.22
2023-11-03T18:47:58.003Z,98871.13
2023-11-03T18:52:59.510Z,98867.31
2023-11-03T18:56:37.732Z,98868.59
2023-11-03T18:59:20.494Z,98874.69
2023-11-03T19:02:11.655Z,98868.00
2023-11-03T19:08:45.554Z,98882.47
2023-11-03T19:11:12.187Z,98877.41
2023-11-03T19:13:39.923Z,98875.22
2023-11-03T19:16:06.992Z,98888.66
2023-11-03T19:18:36.924Z,98883.00
2023-11-03T19:21:07.742Z,98880.22
2023-11-03T19:23:35.985Z,98880.66
2023-11-03T19:26:02.777Z,98876.84
2023-11-03T19:28:33.096Z,98883.16
2023-11-03T19:31:03.643Z,98879.34
2023-11-03T19:33:31.779Z,98877.13
2023-11-03T19:35:58.426Z,98881.84
2023-11-03T19:38:26.141Z,98883.91
2023-11-03T19:40:52.701Z,98878.47
2023-11-03T19:43:19.311Z,98885.81
2023-11-03T19:45:46.045Z,98886.84
2023-11-03T19:48:12.788Z,98887.03
2023-11-03T19:50:39.550Z,98884.03
2023-11-03T19:53:06.141Z,98888.94
2023-11-03T19:55:34.418Z,98878.00
2023-11-03T19:58:00.993Z,98875.13
2023-11-03T20:00:30.506Z,98883.31
2023-11-03T20:02:57.527Z,98868.47
2023-11-03T20:05:25.135Z,98874.78
2023-11-03T20:07:52.340Z,98874.53
2023-11-03T20:10:18.834Z,98878.44
2023-11-03T20:12:45.476Z,98878.88
2023-11-03T20:15:12.661Z,98880.72
2023-11-03T20:17:39.263Z,98876.84
2023-11-03T20:20:10.099Z,98876.25
2023-11-03T20:22:36.778Z,98878.69
2023-11-03T20:25:03.757Z,98881.56
2023-11-03T20:27:32.121Z,98882.81
2023-11-03T20:30:00.265Z,98875.91
2023-11-03T20:32:26.815Z,98869.78
2023-11-03T20:34:53.658Z,98872.22
2023-11-03T20:37:20.276Z,98876.94
2023-11-03T20:39:47.165Z,98873.25
2023-11-03T20:42:15.235Z,98870.81
2023-11-03T20:44:42.751Z,98854.38
2023-11-03T20:47:09.272Z,98857.25
2023-11-03T20:49:36.374Z,98855.38
2023-11-03T20:52:03.078Z,98858.03
2023-11-03T20:54:30.643Z,98857.44
2023-11-03T20:56:57.203Z,98864.34
2023-11-03T20:59:24.186Z,98852.75
2023-11-03T21:01:51.982Z,98853.63
2023-11-03T21:04:20.529Z,98848.34
2023-11-03T21:06:48.399Z,98845.34
2023-11-03T21:09:15.959Z,98846.94
2023-11-03T21:11:42.963Z,98838.44
2023-11-03T21:14:09.529Z,98847.38
2023-11-03T21:16:36.075Z,98850.47
2023-11-03T21:19:04.054Z,98840.09
2023-11-03T21:21:32.032Z,98848.84
2023-11-03T21:23:58.636Z,98851.34
2023-11-03T21:26:26.395Z,98856.03
2023-11-03T21:28:52.876Z,98860.28
2023-11-03T21:31:19.472Z,98858.28
2023-11-03T21:33:48.077Z,98853.22
2023-11-03T21:36:25.987Z,98851.38
2023-11-03T21:38:56.962Z,98850.00
2023-11-03T21:41:23.847Z,98847.34
2023-11-03T21:43:50.509Z,98843.53
2023-11-03T21:46:24.641Z,98840.66
2023-11-03T21:48:53.206Z,98848.81
2023-11-03T21:51:20.826Z,98839.47
2023-11-03T21:53:48.004Z,98832.78
2023-11-03T21:56:15.304Z,98833.00
2023-11-03T21:58:43.140Z,98831.84
2023-11-03T22:01:09.923Z,98831.03
2023-11-03T22:03:37.764Z,98839.78
2023-11-03T22:06:05.966Z,98828.00
2023-11-03T22:08:32.678Z,98824.56
2023-11-03T22:11:00.965Z,98829.47
2023-11-03T22:13:27.541Z,98831.28
2023-11-03T22:15:54.037Z,98822.19
2023-11-03T22:18:21.306Z,98828.47
2023-11-03T22:20:47.951Z,98829.94
2023-11-03T22:23:14.522Z,98824.66
2023-11-03T22:25:41.444Z,98826.72
2023-11-03T22:28:08.769Z,98820.63
2023-11-03T22:30:38.040Z,98815.53
2023-11-03T22:33:04.739Z,98810.69
2023-11-03T22:35:31.283Z,98809.09
2023-11-03T22:37:57.834Z,98810.53
2023-11-03T22:40:24.319Z,98803.03
2023-11-03T22:42:50.979Z,98804.28
2023-11-03T22:45:17.622Z,98800.81
2023-11-03T22:47:45.048Z,98801.66
2023-11-03T22:50:14.641Z,98807.13
2023-11-03T22:52:42.480Z,98810.00
2023-11-03T22:55:11.514Z,98796.22
2023-11-03T22:57:38.352Z,98787.69
2023-11-03T23:00:11.196Z,98792.16
2023-11-03T23:02:40.311Z,98790.53
2023-11-03T23:05:07.704Z,98792.16
2023-11-03T23:07:34.714Z,98793.41
2023-11-03T23:10:01.590Z,98789.34
2023-11-03T23:12:28.153Z,98796.25
2023-11-03T23:14:54.741Z,98796.25
2023-11-03T23:17:21.221Z,98784.50
2023-11-03T23:19:47.923Z,98796.66
2023-11-03T23:22:14.403Z,98791.81
2023-11-03T23:24:40.952Z,98797.69
2023-11-03T23:27:07.619Z,98799.09
2023-11-03T23:29:34.157Z,98797.06
2023-11-03T23:32:00.676Z,98797.22
2023-11-03T23:34:27.358Z,98783.38
2023-11-03T23:36:53.943Z,98778.47
2023-11-03T23:39:20.922Z,98791.84
2023-11-03T23:41:47.439Z,98788.53
2023-11-03T23:44:13.903Z,98781.81
2023-11-03T23:46:40.607Z,98778.53
2023-11-03T23:49:07.190Z,98782.13
2023-11-03T23:51:33.766Z,98778.03
2023-11-03T23:54:00.273Z,98781.41
2023-11-03T23:56:26.866Z,98773.84
2023-11-03T23:58:53.420Z,98763.66
